Winnerscup USA - inventory

Station: Inventory - T Race

Distance: 1 Miles    

Release: 03-Feb-2018 10:00

Weather Release:    Arrival:

Wind at Release:     Wind at Arrival:

Temp at Release: °    Temp at Arrival: °

Lofts: 53

Birds: 278

Clocked: 218

Good Luck to Everyone!
Drops Pos Breeder Pigeon Name Color Sex Ent Arrival Speed To Win Eligible AB
101 Canto & Wiltz - MA 10977-AU17-AA Tanker BB C 1 10:43:02.00 40.899 00:03:04 Yes
102 Daehn/Miele - FL 3837-AU17-FOYS French Braid BB H 2 10:43:38.00 40.336 00:03:40 Yes
103 Larry Lewis - OK 8158-AU17-TRPC White Matter WHGZ H 5 10:43:39.00 40.321 00:03:41 Yes
104 Champ Camp - IN 0230-AU17-CHMP Rain Man BB C 8 10:43:41.00 40.290 00:03:43 Yes
105 Jack's Loft - CA 36716-AU17-ARPU The Magician GR C 5 10:43:47.00 40.198 00:03:49 Yes
105 Crescendo Loft - NM 18441-AU17-AA Horizon Echo BB C 2 10:43:47.00 40.198 00:03:49 Yes
107 Sextons Loft - IA 31771-AU17-AA The Mediator BC C 3 10:43:53.00 40.106 00:03:55 Yes
107 Racing Pigeon Mall - WA 0714-AU17-RPM Main Asset BB C 6 10:43:53.00 40.106 00:03:55 Yes
109 Sextons Loft - IA 31781-AU17-AA Mitigator BB C 4 10:44:05.00 39.924 00:04:07 Yes
110 Dream Team - VT 0426-AU17-JCZL Dream Catcher SLAT C 3 10:44:07.00 39.894 00:04:09 Yes
111 Sextons Loft - IA 31779-AU17-AA Svetlana BC H 5 10:44:11.00 39.834 00:04:13 Yes
112 A B C Loft2 - NY 11768-AU17-ARPU Chances Are BB H 5 10:44:59.00 39.126 00:05:01 Lost
113 Jack's Loft - CA 36718-AU17-ARPU Britanny GR H 6 10:45:01.00 39.097 00:05:03 Yes
114 Daehn/Miele - FL 3838-AU17-FOYS Bamboozled BB H 3 10:45:03.00 39.068 00:05:05 Yes
115 Sofija Loft - IL 0023-AU17-BEKO Muves BB H 2 10:45:04.00 39.053 00:05:06 Yes
116 John Partridge - CA 0619-AU17-PASO Moon Twister BC H 3 10:45:05.00 39.039 00:05:07 Yes
117 Dream Team - VT 0421-AU17-JCZL National One BC C 4 10:45:07.00 39.010 00:05:09 Yes
118 Tanai Kantisiri - CA 2929-AU17-COM Prelude BB H 2 10:45:12.00 38.938 00:05:14 Yes
119 Sextons Loft - IA 31780-AU17-AA Deep Water BB C 6 10:45:13.00 38.924 00:05:15 Lost
119 Hollywood Lou Loft - FL 0074-AU17-LOU Imposter BWFP C 5 10:45:13.00 38.924 00:05:15 Yes
121 Nesler Boyz - CA 1796-AU17-TCH Front Runner BWFP C 2 10:45:14.00 38.909 00:05:16 Yes
121 Dream Team - VT 0576-AU17-JCZL Maze Runner BB C 5 10:45:14.00 38.909 00:05:16 Yes
123 Hollywood Lou Loft - FL 0059-AU17-LOU Magma BBPD H 6 10:45:16.00 38.881 00:05:18 Missing
123 Racing Pigeon Mall - WA 0730-AU17-RPM Opium BB C 7 10:45:16.00 38.881 00:05:18 Yes
125 A P C Loft - TX 17367-AU17-APC Ransome BB H 2 10:45:18.00 38.852 00:05:20 Missing
126 Hollywood Lou Loft - FL 0064-AU17-LOU American South BB C 7 10:45:20.00 38.824 00:05:22 Yes
126 Sarrett Racing Pigeons - TX 7026-AU17-PPH Amarillo Queen BC H 2 10:45:20.00 38.824 00:05:22 Yes
128 A D L Loft - IL 0168-AU17-ADL Maverick BB H 3 10:45:22.00 38.795 00:05:24 Yes
129 Nesneb Racing Loft - AL 17141-AU17-MOB In The Money BB H 3 10:45:23.00 38.781 00:05:25 Yes
129 Larry Lewis - OK 8163-AU17-TRPC Follow The Money BC C 6 10:45:23.00 38.781 00:05:25 Yes
131 Larry Lewis - OK 8151-AU17-TRPC Only Hope BC H 7 10:45:24.00 38.767 00:05:26 Yes
132 Dal-Tex R P C - TX 0440-AU17-DLLS Blue Horizon BB H 2 10:45:26.00 38.738 00:05:28 Lost
132 - 7650-IF17-FTST 2 10:45:26.00 38.738 00:05:28
134 P/R Loft - CA 0282-AU17-GSF Mezmerise BB H 2 10:45:29.00 38.695 00:05:31 Yes
135 A B C Loft2 - NY 59759-AU17-ARPU Cleopatra BC H 6 10:45:33.00 38.639 00:05:35 Yes
135 Ganus Family Loft - IN 0223-AU17-GFL Meteor Man DCWP C 3 10:45:33.00 38.639 00:05:35 Yes
137 Huan Qiu Zhang - NC 1711-AU17-JNC Bit Chain BCW C 1 10:45:34.00 38.625 00:05:36 Yes
138 Champ Camp - IN 0275-AU17-CHMP Scirrocco BB H 9 10:45:37.00 38.582 00:05:39 Yes
139 Sextons Loft - IA 31763-AU17-AA New Apollo BC C 7 10:45:39.00 38.554 00:05:41 Yes
139 A B C Loft2 - NY 59780-AU17-ARPU National Asset BB C 7 10:45:39.00 38.554 00:05:41 Yes
141 Daehn/Miele - FL 3840-AU17-FOYS Steady Freddie BB C 4 10:45:42.00 38.512 00:05:44 Yes
142 Daehn/Miele - FL 3839-AU17-FOYS Melany BB H 5 10:45:45.00 38.470 00:05:47 Yes
143 Nesler Boyz - CA 1797-AU17-TCH Done It All BC H 3 10:45:48.00 38.428 00:05:50 Yes
144 Dream Team - VT 0827-AU17-JCZL Special Delivery BC H 6 10:45:49.00 38.414 00:05:51 Yes
145 Nesler Boyz - CA 1764-AU17-TCH Tag Me Sold BB H 4 10:45:50.00 38.400 00:05:52 Yes
146 Hi-Cal Connection - CA 0758-AU17-HCAL Blue Rachel BBWF H 3 10:45:53.00 38.358 00:05:55 Yes
147 Sarrett Racing Pigeons - TX 7049-AU17-PPH Hailea's Run SMOK H 3 10:46:03.00 38.219 00:06:05 Yes
148 Sarrett Racing Pigeons - TX 7048-AU17-PPH Target' BB H 4 10:46:05.00 38.192 00:06:07 Yes
149 Ken Easley-Silvercreek - NM 5156-AU17-ESLY Leanna BCW H 2 10:46:08.00 38.150 00:06:10 Yes
150 Racing Pigeon Mall - WA 0713-AU17-RPM Gotta Take Notice BB C 8 10:46:09.00 38.137 00:06:11 Yes
150 Dream Team - VT 0707-AU17-JCZL Tower of Power BC H 7 10:46:09.00 38.137 00:06:11 Yes
152 Joe Zarachowicz - MD 2234-AU17-CCC Pimlico BB C 2 10:46:36.00 37.768 00:06:38 Lost
153 Walstons Warriors - NC 7404-AU17-GL NAPOLEON BB C 2 10:46:44.00 37.660 00:06:46 Yes
154 Prout Loft - CA 0084-AU17-PRT Neslers Pick BB C 2 10:46:47.00 37.620 00:06:49 Yes
155 Hollywood Lou Loft - FL 0063-AU17-LOU The Celebrity BB C 8 10:46:49.00 37.593 00:06:51 Yes
156 Bolgar Loft - CA 15842-AU17-FOYS Reziko SLAT C 3 10:47:13.00 37.275 00:07:15 Lost
157 Ojibwe Loft - OK 0041-AU17-OJIB HIGHWATER BB C 3 10:47:14.00 37.262 00:07:16 Yes
158 Champ Camp - IN 0225-AU17-CHMP Point Well Taken BB C 10 10:47:41.00 36.910 00:07:43 Yes
159 Bluestreak - OK 7809-AU17-TRPC Indecent Proposal BL H 1 10:47:46.00 36.846 00:07:48 Yes
160 Ganus Family Loft - IN 0955-AU17-GFL Spritz BC C 4 10:47:52.00 36.769 00:07:54 Yes
161 A D L Loft - IL 0190-AU17-ADL Allegiant BB C 4 10:47:57.00 36.705 00:07:59 Yes
162 Goshentown Lofts - TN 1777-AU17-NPA Whisper BB H 3 10:48:03.00 36.629 00:08:05 Yes
163 Prout Loft - CA 28550-AU17-JEDD TABLOID BC C 3 10:48:10.00 36.540 00:08:12 Yes
164 Sienna Loft - NC 36820-AU17-AA Baby Doll BC H 6 10:48:36.00 36.214 00:08:38 Yes
165 Daehn/Miele - FL 0401-AU17-NWFI Super Man BB C 6 10:48:38.00 36.189 00:08:40 Yes
166 Ken Easley-Silvercreek - NM 5151-AU17-ESLY Urban Kone BB C 3 10:48:46.00 36.090 00:08:48 Yes
167 Daehn/Miele - FL 3842-AU17-FOYS Easy Ryder BC C 7 10:48:52.00 36.016 00:08:54 Yes
168 Daehn/Miele - FL 3836-AU17-FOYS Lasting Impression BB C 8 10:48:57.00 35.955 00:08:59 Yes
169 Ken Easley-Silvercreek - NM 5125-AU17-ESLY Frans CP H 4 10:48:58.00 35.943 00:09:00 Yes
170 Bolgar Loft - CA 15841-AU17-FOYS Darejani SLAT H 4 10:49:05.00 35.857 00:09:07 Yes
171 Ken Easley-Silvercreek - NM 5129-AU17-ESLY Frida BB H 5 10:49:26.00 35.604 00:09:28 Yes
172 Johnny's Automotive - CA 32893-AU17-JEDD Time Warp BB H 4 10:49:27.00 35.592 00:09:29 Yes
173 P/R Loft - CA 0280-AU17-GSF The Puritan BC C 3 10:49:30.00 35.556 00:09:32 Yes
174 Bieche-Stevenson - CA 7497-AU17-BIEC Maximus BB C 3 10:50:40.00 34.737 00:10:42 Yes
175 Sextons Loft - IA 31762-AU17-AA Ladesma BC H 8 10:50:58.00 34.532 00:11:00 Yes
176 Aurelio Aranda - AZ 42214-AU17-AA ARMALITE DCWF C 3 10:52:16.00 33.673 00:12:18 Yes
177 Canto & Wiltz - MA 10998-AU17-AA Orbitaar BB C 2 10:52:20.00 33.631 00:12:22 Yes
178 Ganus Family Loft - IN 0296-AU17-GFL Draft Me Now BC C 5 10:52:54.00 33.270 00:12:56 Yes
179 Jack's Loft - CA 36720-AU17-ARPU Top Choice BC H 7 10:55:50.00 31.522 00:15:52 Lost
180 Daehn/Miele - FL 3841-AU17-FOYS Sweet Million BC C 9 10:55:57.00 31.457 00:15:59 Yes
181 Hi-Cal Connection - CA 0785-AU17-HCAL Under Seige PEN C 4 10:56:07.00 31.363 00:16:09 Yes
182 Tar Syndicate - PA 7976-AU17-TAR Game to Win DC C 2 10:56:15.00 31.289 00:16:17 Yes
183 Canto & Wiltz - MA 10985-AU17-AA Dream City BB C 3 10:56:28.00 31.169 00:16:30 Yes
184 Joe Zarachowicz - MD 2261-AU17-CCC Castaway GR C 3 10:56:39.00 31.068 00:16:41 Yes
185 Johnny's Automotive - CA 32889-AU17-JEDD Blue Diva BB H 5 10:56:44.00 31.022 00:16:46 Yes
185 Sofija Loft - IL 0067-AU17-BEKO Baš Bi Mi Sjelo Taman BBWF C 3 10:56:44.00 31.022 00:16:46 Yes
187 Joe Zarachowicz - MD 2284-AU17-CCC Never Too Late GR C 4 10:57:01.00 30.868 00:17:03 Yes
188 Huan Qiu Zhang - NC 1709-AU17-JNC Kryto Run BB C 2 10:57:13.00 30.760 00:17:15 Yes
189 A P C Loft - TX 17353-AU17-APC Miss HighTower BB H 3 10:57:22.00 30.680 00:17:24 Yes
190 Daehn/Miele - FL 3832-AU17-FOYS Redefined Exit BC C 10 11:00:37.00 29.035 00:20:39 Yes
191 Joe Zarachowicz - MD 2272-AU17-CCC Legacy BB C 5 11:00:54.00 28.900 00:20:56 Lost
192 Nesler Boyz - CA 1766-AU17-TCH Secret Window BB H 5 11:01:19.00 28.703 00:21:21 Yes
193 - 7641-IF17-FTST 5 11:01:31.00 28.610 00:21:33
194 Tar Syndicate - PA 7815-AU17-TAR Packer BB H 3 11:01:36.00 28.571 00:21:38 Yes
195 Jack's Loft - CA 4397-AU17-FOYS Shawnee BBPD C 8 11:05:43.00 26.782 00:25:45 Yes
196 Spirit In The Sky - IL 0371-AU17-LCC John Paul BB C 2 11:07:20.00 26.139 00:27:22 Yes
197 Larry Lewis - OK 8156-AU17-TRPC Clippers Hero BC C 8 11:07:23.00 26.119 00:27:25 Yes
198 Sienna Loft - NC 37802-AU17-AA Admiral Halsey BB C 7 11:08:04.00 25.857 00:28:06 Yes
199 Sofija Loft - IL 0019-AU17-BEKO Baraccuda BB H 4 11:08:05.00 25.851 00:28:07 Yes
200 Jack's Loft - CA 36711-AU17-ARPU Alamaar RGRZ H 9 11:09:21.00 25.379 00:29:23 Yes

There are 262 bird records

Note: These Race Results are unofficial and subject to change until verified by the Race Committee and declared final.